<?xml version='1.0' encoding='UTF-8'?><gpx version="1.1" creator="JPX - https://github.com/jenetics/jpx" xmlns="http://www.topografix.com/GPX/1/1"><trk><trkseg><trkpt lat="52.0816362" lon="4.2461361"><ele>19.0</ele><time>2026-04-11T12:56:08.996Z</time></trkpt><trkpt lat="52.0817081" lon="4.246219"><ele>19.0</ele><time>2026-04-11T12:56:11.997Z</time></trkpt><trkpt lat="52.081781" lon="4.2462944"><ele>19.0</ele><time>2026-04-11T12:56:13.997Z</time></trkpt><trkpt lat="52.0818414" lon="4.2463599"><ele>19.0</ele><time>2026-04-11T12:56:15.997Z</time></trkpt><trkpt lat="52.0818974" lon="4.2464287"><ele>19.0</ele><time>2026-04-11T12:56:17.997Z</time></trkpt><trkpt lat="52.0819596" lon="4.2465167"><ele>19.0</ele><time>2026-04-11T12:56:19.997Z</time></trkpt><trkpt lat="52.0820218" lon="4.2465822"><ele>19.0</ele><time>2026-04-11T12:56:21.996Z</time></trkpt><trkpt lat="52.0820853" lon="4.2466559"><ele>19.0</ele><time>2026-04-11T12:56:23.997Z</time></trkpt><trkpt lat="52.0821439" lon="4.2467123"><ele>19.0</ele><time>2026-04-11T12:56:25.997Z</time></trkpt><trkpt lat="52.0822071" lon="4.2467706"><ele>19.0</ele><time>2026-04-11T12:56:28.997Z</time></trkpt><trkpt lat="52.0822685" lon="4.2468105"><ele>19.0</ele><time>2026-04-11T12:56:30.997Z</time></trkpt><trkpt lat="52.0823325" lon="4.2468387"><ele>19.0</ele><time>2026-04-11T12:56:34.997Z</time></trkpt><trkpt lat="52.0823931" lon="4.2468103"><ele>19.0</ele><time>2026-04-11T12:56:56.997Z</time></trkpt><trkpt lat="52.0824514" lon="4.2468689"><ele>18.8</ele><time>2026-04-11T12:56:58.997Z</time></trkpt><trkpt lat="52.0825268" lon="4.246959"><ele>18.599999999999998</ele><time>2026-04-11T12:57:00.997Z</time></trkpt><trkpt lat="52.0825917" lon="4.2470563"><ele>18.4</ele><time>2026-04-11T12:57:02.997Z</time></trkpt><trkpt lat="52.0826401" lon="4.2471807"><ele>18.2</ele><time>2026-04-11T12:57:04.996Z</time></trkpt><trkpt lat="52.0826884" lon="4.2473052"><ele>18.0</ele><time>2026-04-11T12:57:06.997Z</time></trkpt><trkpt lat="52.0827399" lon="4.2474308"><ele>17.666666666666668</ele><time>2026-04-11T12:57:08.996Z</time></trkpt><trkpt lat="52.0827809" lon="4.247547"><ele>17.333333333333332</ele><time>2026-04-11T12:57:10.997Z</time></trkpt><trkpt lat="52.0828209" lon="4.2476621"><ele>17.0</ele><time>2026-04-11T12:57:12.997Z</time></trkpt><trkpt lat="52.0828633" lon="4.2477833"><ele>16.666666666666664</ele><time>2026-04-11T12:57:14.997Z</time></trkpt><trkpt lat="52.0829034" lon="4.2479084"><ele>16.333333333333332</ele><time>2026-04-11T12:57:16.997Z</time></trkpt><trkpt lat="52.0829418" lon="4.2480284"><ele>16.0</ele><time>2026-04-11T12:57:18.996Z</time></trkpt><trkpt lat="52.0829829" lon="4.2481496"><ele>15.8</ele><time>2026-04-11T12:57:20.997Z</time></trkpt><trkpt lat="52.0830202" lon="4.2482465"><ele>15.600000000000001</ele><time>2026-04-11T12:57:22.997Z</time></trkpt><trkpt lat="52.0830834" lon="4.2483564"><ele>15.4</ele><time>2026-04-11T12:57:25.997Z</time></trkpt><trkpt lat="52.0831519" lon="4.2484573"><ele>15.2</ele><time>2026-04-11T12:57:27.997Z</time></trkpt><trkpt lat="52.083237" lon="4.248546"><ele>15.0</ele><time>2026-04-11T12:57:29.997Z</time></trkpt><trkpt lat="52.0833273" lon="4.2486291"><ele>15.0</ele><time>2026-04-11T12:57:31.997Z</time></trkpt><trkpt lat="52.0834189" lon="4.2487042"><ele>15.0</ele><time>2026-04-11T12:57:33.997Z</time></trkpt><trkpt lat="52.0835126" lon="4.2487876"><ele>15.0</ele><time>2026-04-11T12:57:35.996Z</time></trkpt><trkpt lat="52.0835988" lon="4.2488829"><ele>15.0</ele><time>2026-04-11T12:57:37.997Z</time></trkpt><trkpt lat="52.0836813" lon="4.2489836"><ele>15.0</ele><time>2026-04-11T12:57:39.997Z</time></trkpt><trkpt lat="52.0837694" lon="4.2490769"><ele>15.2</ele><time>2026-04-11T12:57:41.997Z</time></trkpt><trkpt lat="52.083852" lon="4.2491533"><ele>15.4</ele><time>2026-04-11T12:57:43.997Z</time></trkpt><trkpt lat="52.0839285" lon="4.2492539"><ele>15.600000000000001</ele><time>2026-04-11T12:57:45.996Z</time></trkpt><trkpt lat="52.0840057" lon="4.2493568"><ele>15.8</ele><time>2026-04-11T12:57:47.996Z</time></trkpt><trkpt lat="52.0840772" lon="4.2494555"><ele>16.0</ele><time>2026-04-11T12:57:49.997Z</time></trkpt><trkpt lat="52.0841443" lon="4.2495496"><ele>15.999999999999998</ele><time>2026-04-11T12:57:51.997Z</time></trkpt><trkpt lat="52.0842035" lon="4.2496402"><ele>16.0</ele><time>2026-04-11T12:57:53.997Z</time></trkpt><trkpt lat="52.0842682" lon="4.2497262"><ele>16.0</ele><time>2026-04-11T12:57:55.997Z</time></trkpt><trkpt lat="52.084325" lon="4.2498207"><ele>16.0</ele><time>2026-04-11T12:57:57.997Z</time></trkpt><trkpt lat="52.0843849" lon="4.2499422"><ele>15.999999999999998</ele><time>2026-04-11T12:58:00.997Z</time></trkpt><trkpt lat="52.0844288" lon="4.2500214"><ele>16.0</ele><time>2026-04-11T12:58:02.996Z</time></trkpt><trkpt lat="52.0844909" lon="4.2501373"><ele>15.499999999999998</ele><time>2026-04-11T12:58:05.997Z</time></trkpt><trkpt lat="52.0845359" lon="4.2502144"><ele>15.0</ele><time>2026-04-11T12:58:07.997Z</time></trkpt><trkpt lat="52.0845873" lon="4.2502972"><ele>14.5</ele><time>2026-04-11T12:58:10.996Z</time></trkpt><trkpt lat="52.0846658" lon="4.2503922"><ele>14.0</ele><time>2026-04-11T12:58:14.996Z</time></trkpt><trkpt lat="52.0847185" lon="4.2504809"><ele>13.499999999999998</ele><time>2026-04-11T12:58:16.997Z</time></trkpt><trkpt lat="52.0847827" lon="4.2505431"><ele>13.0</ele><time>2026-04-11T12:58:18.996Z</time></trkpt><trkpt lat="52.0848799" lon="4.2506039"><ele>13.0</ele><time>2026-04-11T12:58:20.997Z</time></trkpt><trkpt lat="52.0849584" lon="4.2506652"><ele>13.0</ele><time>2026-04-11T12:58:22.997Z</time></trkpt><trkpt lat="52.0850281" lon="4.250744"><ele>13.0</ele><time>2026-04-11T12:58:24.997Z</time></trkpt><trkpt lat="52.0851022" lon="4.2508155"><ele>13.0</ele><time>2026-04-11T12:58:26.997Z</time></trkpt><trkpt lat="52.0851925" lon="4.2508945"><ele>13.0</ele><time>2026-04-11T12:58:28.997Z</time></trkpt><trkpt lat="52.0852882" lon="4.2509839"><ele>13.0</ele><time>2026-04-11T12:58:30.997Z</time></trkpt><trkpt lat="52.0853836" lon="4.2510748"><ele>13.0</ele><time>2026-04-11T12:58:32.997Z</time></trkpt><trkpt lat="52.0854635" lon="4.2511502"><ele>13.0</ele><time>2026-04-11T12:58:34.996Z</time></trkpt><trkpt lat="52.085546" lon="4.2512445"><ele>13.0</ele><time>2026-04-11T12:58:36.997Z</time></trkpt><trkpt lat="52.0856143" lon="4.2513315"><ele>13.0</ele><time>2026-04-11T12:58:38.997Z</time></trkpt><trkpt lat="52.0856879" lon="4.2514139"><ele>12.666666666666666</ele><time>2026-04-11T12:58:40.997Z</time></trkpt><trkpt lat="52.085761" lon="4.2514683"><ele>12.333333333333332</ele><time>2026-04-11T12:58:42.997Z</time></trkpt><trkpt lat="52.0857954" lon="4.2515921"><ele>12.0</ele><time>2026-04-11T12:58:45.997Z</time></trkpt><trkpt lat="52.0857608" lon="4.2516807"><ele>11.666666666666666</ele><time>2026-04-11T12:58:48.997Z</time></trkpt><trkpt lat="52.0856984" lon="4.2517357"><ele>11.333333333333332</ele><time>2026-04-11T12:58:51.997Z</time></trkpt><trkpt lat="52.0856053" lon="4.2517293"><ele>11.0</ele><time>2026-04-11T12:58:54.997Z</time></trkpt><trkpt lat="52.0855406" lon="4.2517675"><ele>11.0</ele><time>2026-04-11T12:58:56.997Z</time></trkpt><trkpt lat="52.0854794" lon="4.2518115"><ele>11.0</ele><time>2026-04-11T12:58:58.997Z</time></trkpt><trkpt lat="52.0853932" lon="4.2518647"><ele>11.0</ele><time>2026-04-11T12:59:01.997Z</time></trkpt><trkpt lat="52.0853298" lon="4.2519175"><ele>11.0</ele><time>2026-04-11T12:59:03.997Z</time></trkpt><trkpt lat="52.0852646" lon="4.2519928"><ele>11.0</ele><time>2026-04-11T12:59:05.997Z</time></trkpt><trkpt lat="52.0851785" lon="4.2520692"><ele>11.0</ele><time>2026-04-11T12:59:07.996Z</time></trkpt><trkpt lat="52.0851148" lon="4.252136"><ele>11.0</ele><time>2026-04-11T12:59:09.996Z</time></trkpt><trkpt lat="52.0850443" lon="4.2522016"><ele>11.0</ele><time>2026-04-11T12:59:12.997Z</time></trkpt><trkpt lat="52.0849563" lon="4.2522304"><ele>11.0</ele><time>2026-04-11T12:59:15.997Z</time></trkpt><trkpt lat="52.0848888" lon="4.2523181"><ele>11.0</ele><time>2026-04-11T12:59:18.997Z</time></trkpt><trkpt lat="52.0848299" lon="4.2523582"><ele>11.0</ele><time>2026-04-11T12:59:21.997Z</time></trkpt><trkpt lat="52.0847538" lon="4.2524211"><ele>11.0</ele><time>2026-04-11T12:59:24.996Z</time></trkpt><trkpt lat="52.0846711" lon="4.2524946"><ele>11.5</ele><time>2026-04-11T12:59:27.997Z</time></trkpt><trkpt lat="52.0845832" lon="4.252493"><ele>12.0</ele><time>2026-04-11T12:59:30.997Z</time></trkpt><trkpt lat="52.0845392" lon="4.2523596"><ele>12.5</ele><time>2026-04-11T12:59:33.996Z</time></trkpt><trkpt lat="52.0845257" lon="4.2522475"><ele>13.0</ele><time>2026-04-11T12:59:35.997Z</time></trkpt><trkpt lat="52.0845154" lon="4.2521359"><ele>13.500000000000002</ele><time>2026-04-11T12:59:37.997Z</time></trkpt><trkpt lat="52.0845013" lon="4.2520261"><ele>14.0</ele><time>2026-04-11T12:59:39.997Z</time></trkpt><trkpt lat="52.0844903" lon="4.2519174"><ele>14.000000000000002</ele><time>2026-04-11T12:59:41.997Z</time></trkpt><trkpt lat="52.084466" lon="4.2518003"><ele>14.0</ele><time>2026-04-11T12:59:44.997Z</time></trkpt><trkpt lat="52.0844498" lon="4.2516536"><ele>14.0</ele><time>2026-04-11T12:59:47.997Z</time></trkpt><trkpt lat="52.0844219" lon="4.2515082"><ele>14.0</ele><time>2026-04-11T12:59:50.997Z</time></trkpt><trkpt lat="52.084423" lon="4.2513828"><ele>14.000000000000002</ele><time>2026-04-11T12:59:52.997Z</time></trkpt><trkpt lat="52.0844444" lon="4.2512529"><ele>14.0</ele><time>2026-04-11T12:59:54.997Z</time></trkpt><trkpt lat="52.084475" lon="4.2511435"><ele>13.857142857142858</ele><time>2026-04-11T12:59:56.997Z</time></trkpt><trkpt lat="52.0845021" lon="4.2510358"><ele>13.714285714285715</ele><time>2026-04-11T12:59:58.997Z</time></trkpt><trkpt lat="52.0845193" lon="4.2509281"><ele>13.571428571428571</ele><time>2026-04-11T13:00:00.997Z</time></trkpt><trkpt lat="52.0845425" lon="4.2507942"><ele>13.428571428571429</ele><time>2026-04-11T13:00:03.997Z</time></trkpt><trkpt lat="52.0845601" lon="4.2506809"><ele>13.285714285714286</ele><time>2026-04-11T13:00:05.997Z</time></trkpt><trkpt lat="52.084576" lon="4.2505679"><ele>13.142857142857142</ele><time>2026-04-11T13:00:07.997Z</time></trkpt><trkpt lat="52.0845781" lon="4.2504493"><ele>13.0</ele><time>2026-04-11T13:00:09.997Z</time></trkpt><trkpt lat="52.0845485" lon="4.2503487"><ele>12.999999999999998</ele><time>2026-04-11T13:00:11.996Z</time></trkpt><trkpt lat="52.0845219" lon="4.2502417"><ele>13.0</ele><time>2026-04-11T13:00:13.997Z</time></trkpt><trkpt lat="52.0844947" lon="4.2501249"><ele>13.0</ele><time>2026-04-11T13:00:15.997Z</time></trkpt><trkpt lat="52.0844569" lon="4.2500174"><ele>13.0</ele><time>2026-04-11T13:00:17.996Z</time></trkpt><trkpt lat="52.0844119" lon="4.2499058"><ele>12.999999999999998</ele><time>2026-04-11T13:00:19.997Z</time></trkpt><trkpt lat="52.0843509" lon="4.2498081"><ele>13.0</ele><time>2026-04-11T13:00:21.997Z</time></trkpt><trkpt lat="52.0843112" lon="4.249711"><ele>13.0</ele><time>2026-04-11T13:00:23.996Z</time></trkpt><trkpt lat="52.0842653" lon="4.2496348"><ele>13.0</ele><time>2026-04-11T13:00:25.996Z</time></trkpt><trkpt lat="52.0842025" lon="4.2495676"><ele>13.0</ele><time>2026-04-11T13:00:27.997Z</time></trkpt><trkpt lat="52.0841496" lon="4.249497"><ele>13.0</ele><time>2026-04-11T13:00:29.997Z</time></trkpt><trkpt lat="52.0840941" lon="4.249448"><ele>13.0</ele><time>2026-04-11T13:00:31.997Z</time></trkpt><trkpt lat="52.0840299" lon="4.2493796"><ele>13.0</ele><time>2026-04-11T13:00:33.997Z</time></trkpt><trkpt lat="52.0839809" lon="4.249274"><ele>13.0</ele><time>2026-04-11T13:00:35.997Z</time></trkpt><trkpt lat="52.0839215" lon="4.2491818"><ele>12.999999999999998</ele><time>2026-04-11T13:00:37.997Z</time></trkpt><trkpt lat="52.0838541" lon="4.2491285"><ele>13.0</ele><time>2026-04-11T13:00:39.997Z</time></trkpt><trkpt lat="52.0838042" lon="4.249048"><ele>13.0</ele><time>2026-04-11T13:00:41.997Z</time></trkpt><trkpt lat="52.0837474" lon="4.2489697"><ele>13.0</ele><time>2026-04-11T13:00:43.997Z</time></trkpt><trkpt lat="52.0836879" lon="4.2488846"><ele>12.999999999999998</ele><time>2026-04-11T13:00:45.997Z</time></trkpt><trkpt lat="52.0835922" lon="4.2487876"><ele>13.0</ele><time>2026-04-11T13:00:47.997Z</time></trkpt><trkpt lat="52.083511" lon="4.2487137"><ele>13.333333333333332</ele><time>2026-04-11T13:00:49.997Z</time></trkpt><trkpt lat="52.0834251" lon="4.2486552"><ele>13.666666666666666</ele><time>2026-04-11T13:00:51.997Z</time></trkpt><trkpt lat="52.0833473" lon="4.2485744"><ele>14.0</ele><time>2026-04-11T13:00:53.997Z</time></trkpt><trkpt lat="52.0832724" lon="4.2485051"><ele>14.333333333333332</ele><time>2026-04-11T13:00:55.997Z</time></trkpt><trkpt lat="52.0831902" lon="4.2484282"><ele>14.666666666666666</ele><time>2026-04-11T13:00:57.997Z</time></trkpt><trkpt lat="52.0831217" lon="4.2483642"><ele>15.0</ele><time>2026-04-11T13:00:59.997Z</time></trkpt><trkpt lat="52.0830661" lon="4.2484398"><ele>15.0</ele><time>2026-04-11T13:03:13.997Z</time></trkpt><trkpt lat="52.0830577" lon="4.2485497"><ele>15.0</ele><time>2026-04-11T13:03:17.996Z</time></trkpt><trkpt lat="52.083056" lon="4.2486631"><ele>15.0</ele><time>2026-04-11T13:03:19.997Z</time></trkpt><trkpt lat="52.0830485" lon="4.2487673"><ele>15.0</ele><time>2026-04-11T13:03:21.997Z</time></trkpt><trkpt lat="52.0830368" lon="4.2489009"><ele>15.0</ele><time>2026-04-11T13:03:24.997Z</time></trkpt><trkpt lat="52.0830064" lon="4.2490082"><ele>15.0</ele><time>2026-04-11T13:03:28.997Z</time></trkpt><trkpt lat="52.083018" lon="4.2491424"><ele>15.0</ele><time>2026-04-11T13:03:32.996Z</time></trkpt><trkpt lat="52.0829972" lon="4.2492885"><ele>15.0</ele><time>2026-04-11T13:03:35.997Z</time></trkpt><trkpt lat="52.0829701" lon="4.2494281"><ele>15.0</ele><time>2026-04-11T13:03:38.997Z</time></trkpt><trkpt lat="52.0829429" lon="4.2495573"><ele>15.0</ele><time>2026-04-11T13:03:41.996Z</time></trkpt><trkpt lat="52.0829158" lon="4.2496905"><ele>15.0</ele><time>2026-04-11T13:03:44.997Z</time></trkpt><trkpt lat="52.0828976" lon="4.2497957"><ele>15.0</ele><time>2026-04-11T13:03:46.997Z</time></trkpt><trkpt lat="52.0828785" lon="4.2499119"><ele>15.0</ele><time>2026-04-11T13:03:48.997Z</time></trkpt><trkpt lat="52.0828706" lon="4.250023"><ele>15.0</ele><time>2026-04-11T13:03:50.997Z</time></trkpt><trkpt lat="52.0828546" lon="4.2501666"><ele>15.0</ele><time>2026-04-11T13:03:53.996Z</time></trkpt><trkpt lat="52.0828306" lon="4.2503053"><ele>15.0</ele><time>2026-04-11T13:03:56.997Z</time></trkpt><trkpt lat="52.0828188" lon="4.2504563"><ele>15.0</ele><time>2026-04-11T13:03:59.997Z</time></trkpt><trkpt lat="52.0827997" lon="4.2505581"><ele>15.0</ele><time>2026-04-11T13:04:01.997Z</time></trkpt><trkpt lat="52.0827715" lon="4.2506962"><ele>15.0</ele><time>2026-04-11T13:04:04.997Z</time></trkpt><trkpt lat="52.0827504" lon="4.2508196"><ele>15.0</ele><time>2026-04-11T13:04:07.996Z</time></trkpt><trkpt lat="52.0826814" lon="4.2508952"><ele>15.0</ele><time>2026-04-11T13:04:11.997Z</time></trkpt><trkpt lat="52.0826058" lon="4.2509098"><ele>15.0</ele><time>2026-04-11T13:04:14.996Z</time></trkpt><trkpt lat="52.0825436" lon="4.2509301"><ele>15.0</ele><time>2026-04-11T13:04:17.996Z</time></trkpt><trkpt lat="52.0824792" lon="4.2509396"><ele>15.0</ele><time>2026-04-11T13:04:20.996Z</time></trkpt><trkpt lat="52.0824394" lon="4.2508438"><ele>15.0</ele><time>2026-04-11T13:04:27.997Z</time></trkpt><trkpt lat="52.0824463" lon="4.2507187"><ele>15.0</ele><time>2026-04-11T13:04:32.997Z</time></trkpt><trkpt lat="52.0824383" lon="4.2506056"><ele>15.0</ele><time>2026-04-11T13:04:36.997Z</time></trkpt><trkpt lat="52.0824357" lon="4.2504831"><ele>15.0</ele><time>2026-04-11T13:04:39.997Z</time></trkpt><trkpt lat="52.082421" lon="4.2503559"><ele>15.0</ele><time>2026-04-11T13:04:41.997Z</time></trkpt><trkpt lat="52.0823903" lon="4.2502405"><ele>15.0</ele><time>2026-04-11T13:04:43.997Z</time></trkpt><trkpt lat="52.0823714" lon="4.2501414"><ele>15.0</ele><time>2026-04-11T13:04:45.996Z</time></trkpt><trkpt lat="52.0823422" lon="4.2500116"><ele>15.0</ele><time>2026-04-11T13:04:48.997Z</time></trkpt><trkpt lat="52.0822988" lon="4.2498821"><ele>15.5</ele><time>2026-04-11T13:04:51.997Z</time></trkpt><trkpt lat="52.0822679" lon="4.2497767"><ele>16.0</ele><time>2026-04-11T13:04:54.997Z</time></trkpt><trkpt lat="52.0822207" lon="4.2496251"><ele>16.5</ele><time>2026-04-11T13:05:03.997Z</time></trkpt><trkpt lat="52.0821719" lon="4.2494885"><ele>17.0</ele><time>2026-04-11T13:05:05.996Z</time></trkpt><trkpt lat="52.0821067" lon="4.2493934"><ele>17.5</ele><time>2026-04-11T13:05:07.997Z</time></trkpt><trkpt lat="52.0820523" lon="4.2493098"><ele>18.0</ele><time>2026-04-11T13:05:09.997Z</time></trkpt><trkpt lat="52.0820008" lon="4.249227"><ele>18.000000000000004</ele><time>2026-04-11T13:05:11.997Z</time></trkpt><trkpt lat="52.0819522" lon="4.2491437"><ele>18.0</ele><time>2026-04-11T13:05:13.997Z</time></trkpt><trkpt lat="52.0819062" lon="4.2490503"><ele>18.0</ele><time>2026-04-11T13:05:15.997Z</time></trkpt><trkpt lat="52.0818541" lon="4.24895"><ele>18.0</ele><time>2026-04-11T13:05:17.997Z</time></trkpt><trkpt lat="52.0818127" lon="4.248853"><ele>18.0</ele><time>2026-04-11T13:05:19.997Z</time></trkpt><trkpt lat="52.0817847" lon="4.2487507"><ele>18.000000000000004</ele><time>2026-04-11T13:05:21.997Z</time></trkpt><trkpt lat="52.0817689" lon="4.248644"><ele>18.0</ele><time>2026-04-11T13:05:23.997Z</time></trkpt><trkpt lat="52.0817618" lon="4.2485305"><ele>18.000000000000004</ele><time>2026-04-11T13:05:25.997Z</time></trkpt><trkpt lat="52.081745" lon="4.2484178"><ele>18.0</ele><time>2026-04-11T13:05:27.997Z</time></trkpt><trkpt lat="52.0817114" lon="4.2483197"><ele>18.0</ele><time>2026-04-11T13:05:29.997Z</time></trkpt><trkpt lat="52.0816728" lon="4.2482247"><ele>18.0</ele><time>2026-04-11T13:05:31.997Z</time></trkpt><trkpt lat="52.0816083" lon="4.2481802"><ele>18.0</ele><time>2026-04-11T13:05:34.997Z</time></trkpt><trkpt lat="52.0815328" lon="4.2481655"><ele>18.000000000000004</ele><time>2026-04-11T13:05:37.997Z</time></trkpt><trkpt lat="52.0814542" lon="4.2481604"><ele>18.0</ele><time>2026-04-11T13:05:40.997Z</time></trkpt><trkpt lat="52.0813633" lon="4.2481642"><ele>18.0</ele><time>2026-04-11T13:05:43.997Z</time></trkpt><trkpt lat="52.0812786" lon="4.2481535"><ele>18.0</ele><time>2026-04-11T13:05:46.997Z</time></trkpt><trkpt lat="52.08119" lon="4.2481061"><ele>18.0</ele><time>2026-04-11T13:05:49.997Z</time></trkpt><trkpt lat="52.0811221" lon="4.2480332"><ele>18.0</ele><time>2026-04-11T13:05:52.997Z</time></trkpt><trkpt lat="52.0810278" lon="4.2480039"><ele>18.0</ele><time>2026-04-11T13:05:55.997Z</time></trkpt><trkpt lat="52.0809549" lon="4.2479791"><ele>18.0</ele><time>2026-04-11T13:05:57.997Z</time></trkpt><trkpt lat="52.0808886" lon="4.2479598"><ele>18.666666666666668</ele><time>2026-04-11T13:05:59.997Z</time></trkpt><trkpt lat="52.0808181" lon="4.2479463"><ele>19.333333333333332</ele><time>2026-04-11T13:06:02.997Z</time></trkpt><trkpt lat="52.0807462" lon="4.2479189"><ele>20.0</ele><time>2026-04-11T13:06:08.996Z</time></trkpt><trkpt lat="52.0806614" lon="4.2478815"><ele>20.666666666666664</ele><time>2026-04-11T13:06:11.996Z</time></trkpt><trkpt lat="52.0805953" lon="4.2478432"><ele>21.333333333333332</ele><time>2026-04-11T13:06:13.996Z</time></trkpt><trkpt lat="52.080517" lon="4.2478008"><ele>22.0</ele><time>2026-04-11T13:06:16.996Z</time></trkpt><trkpt lat="52.0804508" lon="4.2477566"><ele>20.833333333333332</ele><time>2026-04-11T13:06:19.996Z</time></trkpt><trkpt lat="52.0803922" lon="4.2476531"><ele>19.666666666666664</ele><time>2026-04-11T13:06:22.996Z</time></trkpt><trkpt lat="52.080325" lon="4.2475461"><ele>18.5</ele><time>2026-04-11T13:06:25.996Z</time></trkpt><trkpt lat="52.0802815" lon="4.2474612"><ele>17.333333333333332</ele><time>2026-04-11T13:06:28.996Z</time></trkpt><trkpt lat="52.0802433" lon="4.2473605"><ele>16.166666666666668</ele><time>2026-04-11T13:06:33.996Z</time></trkpt><trkpt lat="52.0801994" lon="4.2472555"><ele>15.0</ele><time>2026-04-11T13:06:38.996Z</time></trkpt><trkpt lat="52.0801766" lon="4.2471579"><ele>15.0</ele><time>2026-04-11T13:06:41.996Z</time></trkpt><trkpt lat="52.0801568" lon="4.2470489"><ele>15.0</ele><time>2026-04-11T13:06:44.996Z</time></trkpt><trkpt lat="52.0801119" lon="4.2469502"><ele>15.0</ele><time>2026-04-11T13:06:47.995Z</time></trkpt><trkpt lat="52.0800771" lon="4.2468608"><ele>15.0</ele><time>2026-04-11T13:06:49.996Z</time></trkpt><trkpt lat="52.0800344" lon="4.2467699"><ele>15.0</ele><time>2026-04-11T13:06:51.996Z</time></trkpt><trkpt lat="52.0799916" lon="4.2466766"><ele>15.0</ele><time>2026-04-11T13:06:53.996Z</time></trkpt><trkpt lat="52.0799445" lon="4.2465548"><ele>15.0</ele><time>2026-04-11T13:06:55.996Z</time></trkpt><trkpt lat="52.0799204" lon="4.2464265"><ele>15.285714285714286</ele><time>2026-04-11T13:06:57.996Z</time></trkpt><trkpt lat="52.0799054" lon="4.2463144"><ele>15.57142857142857</ele><time>2026-04-11T13:06:59.996Z</time></trkpt><trkpt lat="52.0799047" lon="4.2461934"><ele>15.857142857142856</ele><time>2026-04-11T13:07:01.996Z</time></trkpt><trkpt lat="52.0799176" lon="4.2460908"><ele>16.142857142857142</ele><time>2026-04-11T13:07:04.995Z</time></trkpt><trkpt lat="52.0799511" lon="4.2459981"><ele>16.428571428571427</ele><time>2026-04-11T13:07:08.996Z</time></trkpt><trkpt lat="52.0799865" lon="4.2459058"><ele>16.71428571428571</ele><time>2026-04-11T13:07:12.996Z</time></trkpt><trkpt lat="52.0800373" lon="4.2458032"><ele>17.0</ele><time>2026-04-11T13:07:15.996Z</time></trkpt><trkpt lat="52.0800875" lon="4.2457346"><ele>17.0</ele><time>2026-04-11T13:07:17.996Z</time></trkpt><trkpt lat="52.0801519" lon="4.2456316"><ele>17.0</ele><time>2026-04-11T13:07:19.995Z</time></trkpt><trkpt lat="52.080204" lon="4.2455232"><ele>17.0</ele><time>2026-04-11T13:07:21.996Z</time></trkpt><trkpt lat="52.0802335" lon="4.2454091"><ele>17.0</ele><time>2026-04-11T13:07:23.996Z</time></trkpt><trkpt lat="52.0802379" lon="4.2452907"><ele>17.0</ele><time>2026-04-11T13:07:25.996Z</time></trkpt><trkpt lat="52.0802353" lon="4.2451849"><ele>17.0</ele><time>2026-04-11T13:07:27.996Z</time></trkpt><trkpt lat="52.0802168" lon="4.2450867"><ele>16.71428571428571</ele><time>2026-04-11T13:07:29.995Z</time></trkpt><trkpt lat="52.0802029" lon="4.244978"><ele>16.428571428571427</ele><time>2026-04-11T13:07:33.996Z</time></trkpt><trkpt lat="52.0801574" lon="4.2449059"><ele>16.142857142857142</ele><time>2026-04-11T13:07:37.996Z</time></trkpt><trkpt lat="52.0800962" lon="4.2448265"><ele>15.857142857142856</ele><time>2026-04-11T13:07:49.995Z</time></trkpt><trkpt lat="52.0800315" lon="4.2447751"><ele>15.57142857142857</ele><time>2026-04-11T13:07:53.996Z</time></trkpt><trkpt lat="52.0799683" lon="4.2447194"><ele>15.285714285714286</ele><time>2026-04-11T13:07:56.996Z</time></trkpt><trkpt lat="52.0798887" lon="4.244656"><ele>15.0</ele><time>2026-04-11T13:07:59.996Z</time></trkpt><trkpt lat="52.0798132" lon="4.2446207"><ele>15.0</ele><time>2026-04-11T13:08:01.996Z</time></trkpt><trkpt lat="52.0797099" lon="4.244567"><ele>15.0</ele><time>2026-04-11T13:08:03.996Z</time></trkpt><trkpt lat="52.0796096" lon="4.2445479"><ele>15.0</ele><time>2026-04-11T13:08:05.996Z</time></trkpt><trkpt lat="52.079526" lon="4.2445265"><ele>15.0</ele><time>2026-04-11T13:08:07.995Z</time></trkpt><trkpt lat="52.0794409" lon="4.2444779"><ele>15.0</ele><time>2026-04-11T13:08:09.996Z</time></trkpt><trkpt lat="52.0793613" lon="4.244402"><ele>15.0</ele><time>2026-04-11T13:08:11.996Z</time></trkpt><trkpt lat="52.0793061" lon="4.2442976"><ele>15.0</ele><time>2026-04-11T13:08:13.996Z</time></trkpt><trkpt lat="52.0792576" lon="4.2441948"><ele>15.0</ele><time>2026-04-11T13:08:15.996Z</time></trkpt><trkpt lat="52.0792403" lon="4.244087"><ele>15.0</ele><time>2026-04-11T13:08:17.995Z</time></trkpt><trkpt lat="52.079199" lon="4.2439403"><ele>15.0</ele><time>2026-04-11T13:08:19.996Z</time></trkpt><trkpt lat="52.0791584" lon="4.2437852"><ele>15.0</ele><time>2026-04-11T13:08:21.996Z</time></trkpt><trkpt lat="52.0791124" lon="4.2436633"><ele>13.6</ele><time>2026-04-11T13:08:23.996Z</time></trkpt><trkpt lat="52.0790399" lon="4.2435415"><ele>12.2</ele><time>2026-04-11T13:08:25.996Z</time></trkpt><trkpt lat="52.0789513" lon="4.243448"><ele>10.8</ele><time>2026-04-11T13:08:27.996Z</time></trkpt><trkpt lat="52.0788803" lon="4.2433672"><ele>9.4</ele><time>2026-04-11T13:08:29.995Z</time></trkpt><trkpt lat="52.0788288" lon="4.2432877"><ele>8.0</ele><time>2026-04-11T13:08:31.996Z</time></trkpt><trkpt lat="52.0787662" lon="4.2431345"><ele>8.4</ele><time>2026-04-11T13:08:33.996Z</time></trkpt><trkpt lat="52.0787166" lon="4.2429641"><ele>8.8</ele><time>2026-04-11T13:08:35.996Z</time></trkpt><trkpt lat="52.0786577" lon="4.2427914"><ele>9.2</ele><time>2026-04-11T13:08:37.996Z</time></trkpt><trkpt lat="52.0785991" lon="4.2426412"><ele>9.6</ele><time>2026-04-11T13:08:39.996Z</time></trkpt><trkpt lat="52.0785479" lon="4.2425064"><ele>10.0</ele><time>2026-04-11T13:08:41.996Z</time></trkpt><trkpt lat="52.0785006" lon="4.2424134"><ele>10.0</ele><time>2026-04-11T13:08:43.996Z</time></trkpt><trkpt lat="52.0784514" lon="4.2423057"><ele>10.0</ele><time>2026-04-11T13:08:46.996Z</time></trkpt><trkpt lat="52.0783964" lon="4.2422023"><ele>10.0</ele><time>2026-04-11T13:08:49.996Z</time></trkpt><trkpt lat="52.078345" lon="4.2420974"><ele>10.0</ele><time>2026-04-11T13:08:51.996Z</time></trkpt><trkpt lat="52.078304" lon="4.2419778"><ele>10.0</ele><time>2026-04-11T13:08:53.996Z</time></trkpt><trkpt lat="52.0782954" lon="4.2418732"><ele>10.0</ele><time>2026-04-11T13:08:55.996Z</time></trkpt><trkpt lat="52.0782961" lon="4.2417492"><ele>9.833333333333334</ele><time>2026-04-11T13:08:58.996Z</time></trkpt><trkpt lat="52.0783002" lon="4.2416369"><ele>9.666666666666668</ele><time>2026-04-11T13:09:01.996Z</time></trkpt><trkpt lat="52.0783037" lon="4.2415054"><ele>9.5</ele><time>2026-04-11T13:09:05.996Z</time></trkpt><trkpt lat="52.0783206" lon="4.2413663"><ele>9.333333333333334</ele><time>2026-04-11T13:09:08.996Z</time></trkpt><trkpt lat="52.0783233" lon="4.2412337"><ele>9.166666666666666</ele><time>2026-04-11T13:09:11.996Z</time></trkpt><trkpt lat="52.0783287" lon="4.2410949"><ele>9.0</ele><time>2026-04-11T13:09:13.996Z</time></trkpt><trkpt lat="52.0783185" lon="4.2409299"><ele>9.333333333333334</ele><time>2026-04-11T13:09:15.996Z</time></trkpt><trkpt lat="52.0782934" lon="4.2407817"><ele>9.666666666666666</ele><time>2026-04-11T13:09:17.996Z</time></trkpt><trkpt lat="52.0782422" lon="4.2406732"><ele>10.0</ele><time>2026-04-11T13:09:19.996Z</time></trkpt><trkpt lat="52.0782044" lon="4.2405713"><ele>10.333333333333332</ele><time>2026-04-11T13:09:21.996Z</time></trkpt><trkpt lat="52.0781503" lon="4.2404646"><ele>10.666666666666666</ele><time>2026-04-11T13:09:24.996Z</time></trkpt><trkpt lat="52.0781108" lon="4.2403624"><ele>11.0</ele><time>2026-04-11T13:09:27.996Z</time></trkpt><trkpt lat="52.0780791" lon="4.2402736"><ele>11.0</ele><time>2026-04-11T13:09:29.996Z</time></trkpt><trkpt lat="52.078042" lon="4.240141"><ele>11.0</ele><time>2026-04-11T13:09:31.996Z</time></trkpt><trkpt lat="52.0780338" lon="4.2400389"><ele>11.0</ele><time>2026-04-11T13:09:32.996Z</time></trkpt><trkpt lat="52.0780283" lon="4.2398575"><ele>11.0</ele><time>2026-04-11T13:09:34.996Z</time></trkpt><trkpt lat="52.0780267" lon="4.2397198"><ele>11.0</ele><time>2026-04-11T13:09:36.996Z</time></trkpt><trkpt lat="52.0780138" lon="4.2396031"><ele>11.0</ele><time>2026-04-11T13:09:38.996Z</time></trkpt><trkpt lat="52.0779891" lon="4.2394888"><ele>11.0</ele><time>2026-04-11T13:09:40.996Z</time></trkpt><trkpt lat="52.0779704" lon="4.2393539"><ele>11.0</ele><time>2026-04-11T13:09:42.996Z</time></trkpt><trkpt lat="52.0779535" lon="4.2392032"><ele>11.0</ele><time>2026-04-11T13:09:44.996Z</time></trkpt><trkpt lat="52.0779369" lon="4.2390373"><ele>11.0</ele><time>2026-04-11T13:09:46.996Z</time></trkpt><trkpt lat="52.0779201" lon="4.2388621"><ele>11.0</ele><time>2026-04-11T13:09:48.996Z</time></trkpt><trkpt lat="52.0778888" lon="4.2386793"><ele>11.5</ele><time>2026-04-11T13:09:50.996Z</time></trkpt><trkpt lat="52.0778237" lon="4.2385378"><ele>12.0</ele><time>2026-04-11T13:09:52.996Z</time></trkpt><trkpt lat="52.077759" lon="4.2384495"><ele>12.5</ele><time>2026-04-11T13:09:54.996Z</time></trkpt><trkpt lat="52.0776976" lon="4.2383891"><ele>13.0</ele><time>2026-04-11T13:09:56.996Z</time></trkpt><trkpt lat="52.0776316" lon="4.238329"><ele>13.500000000000002</ele><time>2026-04-11T13:09:58.996Z</time></trkpt><trkpt lat="52.0775621" lon="4.238245"><ele>14.0</ele><time>2026-04-11T13:10:00.996Z</time></trkpt><trkpt lat="52.0774969" lon="4.2381528"><ele>13.2</ele><time>2026-04-11T13:10:02.996Z</time></trkpt><trkpt lat="52.077429" lon="4.2380272"><ele>12.399999999999999</ele><time>2026-04-11T13:10:04.996Z</time></trkpt><trkpt lat="52.0773642" lon="4.2379128"><ele>11.6</ele><time>2026-04-11T13:10:06.996Z</time></trkpt><trkpt lat="52.0773058" lon="4.2377889"><ele>10.8</ele><time>2026-04-11T13:10:08.996Z</time></trkpt><trkpt lat="52.0772529" lon="4.2376312"><ele>10.0</ele><time>2026-04-11T13:10:10.996Z</time></trkpt><trkpt lat="52.0772073" lon="4.2374676"><ele>10.0</ele><time>2026-04-11T13:10:12.996Z</time></trkpt><trkpt lat="52.0771719" lon="4.2373172"><ele>10.0</ele><time>2026-04-11T13:10:14.996Z</time></trkpt><trkpt lat="52.0771398" lon="4.237194"><ele>10.0</ele><time>2026-04-11T13:10:16.996Z</time></trkpt><trkpt lat="52.0770989" lon="4.2370754"><ele>10.0</ele><time>2026-04-11T13:10:18.996Z</time></trkpt><trkpt lat="52.0770602" lon="4.2369658"><ele>10.0</ele><time>2026-04-11T13:10:20.995Z</time></trkpt><trkpt lat="52.0770157" lon="4.2368385"><ele>10.0</ele><time>2026-04-11T13:10:22.996Z</time></trkpt><trkpt lat="52.0769506" lon="4.2366957"><ele>10.166666666666668</ele><time>2026-04-11T13:10:24.996Z</time></trkpt><trkpt lat="52.0769109" lon="4.236615"><ele>10.333333333333334</ele><time>2026-04-11T13:10:25.996Z</time></trkpt><trkpt lat="52.0768717" lon="4.2365331"><ele>10.5</ele><time>2026-04-11T13:10:26.995Z</time></trkpt><trkpt lat="52.0768348" lon="4.2364498"><ele>10.666666666666666</ele><time>2026-04-11T13:10:27.996Z</time></trkpt><trkpt lat="52.0767413" lon="4.2363315"><ele>10.833333333333332</ele><time>2026-04-11T13:10:29.996Z</time></trkpt><trkpt lat="52.076658" lon="4.2362545"><ele>11.0</ele><time>2026-04-11T13:10:31.996Z</time></trkpt><trkpt lat="52.0765985" lon="4.2362148"><ele>11.0</ele><time>2026-04-11T13:10:33.996Z</time></trkpt><trkpt lat="52.0765399" lon="4.2361759"><ele>11.0</ele><time>2026-04-11T13:14:24.995Z</time></trkpt><trkpt lat="52.0764836" lon="4.2361096"><ele>11.0</ele><time>2026-04-11T13:14:29.996Z</time></trkpt><trkpt lat="52.076424" lon="4.2360482"><ele>11.0</ele><time>2026-04-11T13:14:33.996Z</time></trkpt><trkpt lat="52.0763512" lon="4.2359941"><ele>11.0</ele><time>2026-04-11T13:14:37.996Z</time></trkpt><trkpt lat="52.076281" lon="4.2359259"><ele>11.0</ele><time>2026-04-11T13:14:40.996Z</time></trkpt><trkpt lat="52.0762024" lon="4.2358543"><ele>11.0</ele><time>2026-04-11T13:14:43.996Z</time></trkpt><trkpt lat="52.0761417" lon="4.2358181"><ele>11.0</ele><time>2026-04-11T13:14:45.996Z</time></trkpt><trkpt lat="52.0760645" lon="4.2357573"><ele>11.0</ele><time>2026-04-11T13:14:48.996Z</time></trkpt><trkpt lat="52.0759728" lon="4.2357011"><ele>11.0</ele><time>2026-04-11T13:14:51.996Z</time></trkpt><trkpt lat="52.0758693" lon="4.2356366"><ele>11.0</ele><time>2026-04-11T13:14:53.996Z</time></trkpt><trkpt lat="52.075764" lon="4.2355904"><ele>10.833333333333332</ele><time>2026-04-11T13:14:55.996Z</time></trkpt><trkpt lat="52.0756751" lon="4.2355496"><ele>10.666666666666666</ele><time>2026-04-11T13:14:57.996Z</time></trkpt><trkpt lat="52.0755841" lon="4.2355075"><ele>10.5</ele><time>2026-04-11T13:14:59.996Z</time></trkpt><trkpt lat="52.0754979" lon="4.2354602"><ele>10.333333333333334</ele><time>2026-04-11T13:15:01.996Z</time></trkpt><trkpt lat="52.0754357" lon="4.2354088"><ele>10.166666666666668</ele><time>2026-04-11T13:15:03.996Z</time></trkpt><trkpt lat="52.075342" lon="4.235361"><ele>10.0</ele><time>2026-04-11T13:15:06.996Z</time></trkpt><trkpt lat="52.0752732" lon="4.2352925"><ele>10.0</ele><time>2026-04-11T13:15:09.996Z</time></trkpt><trkpt lat="52.0752085" lon="4.2352924"><ele>10.0</ele><time>2026-04-11T13:15:17.996Z</time></trkpt><trkpt lat="52.0752257" lon="4.2353944"><ele>10.0</ele><time>2026-04-11T13:15:25.995Z</time></trkpt><trkpt lat="52.0753045" lon="4.2354039"><ele>10.0</ele><time>2026-04-11T13:17:10.996Z</time></trkpt><trkpt lat="52.0753732" lon="4.2353864"><ele>10.0</ele><time>2026-04-11T13:17:12.996Z</time></trkpt><trkpt lat="52.0754619" lon="4.2354086"><ele>10.0</ele><time>2026-04-11T13:17:14.996Z</time></trkpt><trkpt lat="52.0755473" lon="4.2354859"><ele>10.0</ele><time>2026-04-11T13:17:16.995Z</time></trkpt><trkpt lat="52.0756463" lon="4.2355513"><ele>10.0</ele><time>2026-04-11T13:17:18.995Z</time></trkpt><trkpt lat="52.0757376" lon="4.2356024"><ele>10.0</ele><time>2026-04-11T13:17:20.996Z</time></trkpt><trkpt lat="52.0758294" lon="4.2356374"><ele>10.0</ele><time>2026-04-11T13:17:22.995Z</time></trkpt><trkpt lat="52.0759198" lon="4.2357036"><ele>10.0</ele><time>2026-04-11T13:17:24.995Z</time></trkpt><trkpt lat="52.0760038" lon="4.2357679"><ele>10.2</ele><time>2026-04-11T13:17:26.995Z</time></trkpt><trkpt lat="52.076099" lon="4.2358278"><ele>10.4</ele><time>2026-04-11T13:17:28.995Z</time></trkpt><trkpt lat="52.0762047" lon="4.235903"><ele>10.600000000000001</ele><time>2026-04-11T13:17:30.996Z</time></trkpt><trkpt lat="52.0762966" lon="4.2359728"><ele>10.8</ele><time>2026-04-11T13:17:32.996Z</time></trkpt><trkpt lat="52.0763643" lon="4.2360113"><ele>11.0</ele><time>2026-04-11T13:17:34.996Z</time></trkpt><trkpt lat="52.0764314" lon="4.2360523"><ele>11.0</ele><time>2026-04-11T13:17:37.996Z</time></trkpt><trkpt lat="52.0764891" lon="4.2361145"><ele>11.0</ele><time>2026-04-11T13:17:41.996Z</time></trkpt><trkpt lat="52.0764979" lon="4.2362285"><ele>11.0</ele><time>2026-04-11T13:19:48.996Z</time></trkpt><trkpt lat="52.0764843" lon="4.2363692"><ele>11.0</ele><time>2026-04-11T13:19:50.996Z</time></trkpt><trkpt lat="52.0764397" lon="4.2365391"><ele>11.0</ele><time>2026-04-11T13:19:52.996Z</time></trkpt><trkpt lat="52.0763961" lon="4.2367154"><ele>10.600000000000001</ele><time>2026-04-11T13:19:54.996Z</time></trkpt><trkpt lat="52.0763548" lon="4.2368825"><ele>10.200000000000001</ele><time>2026-04-11T13:19:56.996Z</time></trkpt><trkpt lat="52.0763123" lon="4.2370397"><ele>9.8</ele><time>2026-04-11T13:19:58.996Z</time></trkpt><trkpt lat="52.0762734" lon="4.2371733"><ele>9.4</ele><time>2026-04-11T13:20:00.996Z</time></trkpt><trkpt lat="52.0762336" lon="4.2372895"><ele>9.0</ele><time>2026-04-11T13:20:02.995Z</time></trkpt><trkpt lat="52.0761951" lon="4.2373764"><ele>8.714285714285715</ele><time>2026-04-11T13:20:04.996Z</time></trkpt><trkpt lat="52.0761496" lon="4.2374551"><ele>8.428571428571429</ele><time>2026-04-11T13:20:06.996Z</time></trkpt><trkpt lat="52.076093" lon="4.2375505"><ele>8.142857142857142</ele><time>2026-04-11T13:20:10.996Z</time></trkpt><trkpt lat="52.0760291" lon="4.237585"><ele>7.857142857142858</ele><time>2026-04-11T13:20:12.996Z</time></trkpt><trkpt lat="52.0759669" lon="4.2376142"><ele>7.571428571428571</ele><time>2026-04-11T13:20:13.995Z</time></trkpt><trkpt lat="52.0759089" lon="4.2376557"><ele>7.285714285714286</ele><time>2026-04-11T13:20:14.996Z</time></trkpt><trkpt lat="52.0758447" lon="4.2377032"><ele>7.0</ele><time>2026-04-11T13:20:15.996Z</time></trkpt><trkpt lat="52.0757288" lon="4.2378072"><ele>6.833333333333334</ele><time>2026-04-11T13:20:17.996Z</time></trkpt><trkpt lat="52.0756628" lon="4.2378628"><ele>6.666666666666667</ele><time>2026-04-11T13:20:18.996Z</time></trkpt><trkpt lat="52.0755961" lon="4.2379198"><ele>6.5</ele><time>2026-04-11T13:20:19.995Z</time></trkpt><trkpt lat="52.0755312" lon="4.2379785"><ele>6.333333333333334</ele><time>2026-04-11T13:20:20.996Z</time></trkpt><trkpt lat="52.0754642" lon="4.2380418"><ele>6.166666666666667</ele><time>2026-04-11T13:20:21.996Z</time></trkpt><trkpt lat="52.0753908" lon="4.2381112"><ele>6.0</ele><time>2026-04-11T13:20:22.996Z</time></trkpt><trkpt lat="52.0753218" lon="4.2381705"><ele>6.0</ele><time>2026-04-11T13:20:23.996Z</time></trkpt><trkpt lat="52.0752502" lon="4.238227"><ele>6.0</ele><time>2026-04-11T13:20:24.996Z</time></trkpt><trkpt lat="52.0751816" lon="4.238284"><ele>6.0</ele><time>2026-04-11T13:20:25.996Z</time></trkpt><trkpt lat="52.0751102" lon="4.2383357"><ele>6.0</ele><time>2026-04-11T13:20:26.996Z</time></trkpt><trkpt lat="52.0750445" lon="4.2383889"><ele>6.0</ele><time>2026-04-11T13:20:27.996Z</time></trkpt><trkpt lat="52.0749799" lon="4.2384369"><ele>6.0</ele><time>2026-04-11T13:20:28.996Z</time></trkpt><trkpt lat="52.0748846" lon="4.2385262"><ele>6.0</ele><time>2026-04-11T13:20:30.996Z</time></trkpt><trkpt lat="52.0747903" lon="4.2386045"><ele>6.0</ele><time>2026-04-11T13:20:32.995Z</time></trkpt><trkpt lat="52.074686" lon="4.2386863"><ele>6.0</ele><time>2026-04-11T13:20:34.996Z</time></trkpt><trkpt lat="52.0746256" lon="4.2387386"><ele>6.0</ele><time>2026-04-11T13:20:35.996Z</time></trkpt><trkpt lat="52.0745553" lon="4.2387977"><ele>6.0</ele><time>2026-04-11T13:20:36.996Z</time></trkpt><trkpt lat="52.0744896" lon="4.2388536"><ele>6.0</ele><time>2026-04-11T13:20:37.996Z</time></trkpt><trkpt lat="52.0744169" lon="4.2389164"><ele>6.0</ele><time>2026-04-11T13:20:38.996Z</time></trkpt><trkpt lat="52.0743489" lon="4.2389798"><ele>6.0</ele><time>2026-04-11T13:20:39.996Z</time></trkpt><trkpt lat="52.0742812" lon="4.2390352"><ele>6.0</ele><time>2026-04-11T13:20:40.996Z</time></trkpt><trkpt lat="52.0742222" lon="4.2390977"><ele>6.0</ele><time>2026-04-11T13:20:41.996Z</time></trkpt><trkpt lat="52.0741562" lon="4.2391563"><ele>6.0</ele><time>2026-04-11T13:20:42.996Z</time></trkpt><trkpt lat="52.0740446" lon="4.2392627"><ele>6.0</ele><time>2026-04-11T13:20:44.996Z</time></trkpt><trkpt lat="52.0739569" lon="4.2393409"><ele>5.666666666666667</ele><time>2026-04-11T13:20:46.996Z</time></trkpt><trkpt lat="52.0738685" lon="4.2394189"><ele>5.333333333333333</ele><time>2026-04-11T13:20:48.996Z</time></trkpt><trkpt lat="52.0738111" lon="4.2394669"><ele>5.0</ele><time>2026-04-11T13:20:49.996Z</time></trkpt><trkpt lat="52.0736924" lon="4.2395646"><ele>4.666666666666666</ele><time>2026-04-11T13:20:51.996Z</time></trkpt><trkpt lat="52.0736339" lon="4.2396041"><ele>4.333333333333333</ele><time>2026-04-11T13:20:52.996Z</time></trkpt><trkpt lat="52.0736346" lon="4.2394885"><ele>4.0</ele><time>2026-04-11T13:21:09.996Z</time></trkpt><trkpt lat="52.0736131" lon="4.2393677"><ele>3.9999999999999996</ele><time>2026-04-11T13:21:11.995Z</time></trkpt><trkpt lat="52.0735648" lon="4.2392104"><ele>4.0</ele><time>2026-04-11T13:21:13.996Z</time></trkpt><trkpt lat="52.0735357" lon="4.2391179"><ele>4.0</ele><time>2026-04-11T13:21:14.996Z</time></trkpt><trkpt lat="52.0735065" lon="4.2390143"><ele>4.0</ele><time>2026-04-11T13:21:15.996Z</time></trkpt><trkpt lat="52.0734787" lon="4.2389076"><ele>3.9999999999999996</ele><time>2026-04-11T13:21:16.996Z</time></trkpt><trkpt lat="52.0734505" lon="4.2388094"><ele>4.0</ele><time>2026-04-11T13:21:17.996Z</time></trkpt><trkpt lat="52.0733987" lon="4.238635"><ele>3.8000000000000003</ele><time>2026-04-11T13:21:19.996Z</time></trkpt><trkpt lat="52.0733663" lon="4.238478"><ele>3.6000000000000005</ele><time>2026-04-11T13:21:21.996Z</time></trkpt><trkpt lat="52.0733597" lon="4.2383326"><ele>3.4</ele><time>2026-04-11T13:21:23.996Z</time></trkpt><trkpt lat="52.0733493" lon="4.2381955"><ele>3.2</ele><time>2026-04-11T13:21:25.996Z</time></trkpt><trkpt lat="52.0733292" lon="4.2380239"><ele>3.0</ele><time>2026-04-11T13:21:27.995Z</time></trkpt><trkpt lat="52.0733105" lon="4.2378201"><ele>2.9999999999999996</ele><time>2026-04-11T13:21:29.996Z</time></trkpt><trkpt lat="52.0732979" lon="4.2377102"><ele>3.0</ele><time>2026-04-11T13:21:30.996Z</time></trkpt><trkpt lat="52.0732802" lon="4.2375981"><ele>3.0</ele><time>2026-04-11T13:21:31.996Z</time></trkpt><trkpt lat="52.0732659" lon="4.2374849"><ele>3.0</ele><time>2026-04-11T13:21:32.996Z</time></trkpt><trkpt lat="52.0732541" lon="4.2373649"><ele>3.0</ele><time>2026-04-11T13:21:33.996Z</time></trkpt><trkpt lat="52.073246" lon="4.2372543"><ele>2.9999999999999996</ele><time>2026-04-11T13:21:34.996Z</time></trkpt><trkpt lat="52.0732416" lon="4.237148"><ele>3.0</ele><time>2026-04-11T13:21:35.995Z</time></trkpt><trkpt lat="52.0732341" lon="4.2370406"><ele>3.0</ele><time>2026-04-11T13:21:36.996Z</time></trkpt><trkpt lat="52.0732306" lon="4.2369369"><ele>3.0</ele><time>2026-04-11T13:21:37.996Z</time></trkpt><trkpt lat="52.0732154" lon="4.2367468"><ele>3.0</ele><time>2026-04-11T13:21:39.996Z</time></trkpt><trkpt lat="52.0731933" lon="4.2365774"><ele>3.0</ele><time>2026-04-11T13:21:41.996Z</time></trkpt><trkpt lat="52.0731558" lon="4.2364484"><ele>3.0</ele><time>2026-04-11T13:21:43.996Z</time></trkpt><trkpt lat="52.0731137" lon="4.2363519"><ele>3.0</ele><time>2026-04-11T13:21:45.996Z</time></trkpt><trkpt lat="52.0731137" lon="4.2362442"><ele>3.3333333333333335</ele><time>2026-04-11T13:21:48.996Z</time></trkpt><trkpt lat="52.0731861" lon="4.2361634"><ele>3.666666666666667</ele><time>2026-04-11T13:26:45.995Z</time></trkpt><trkpt lat="52.0731096" lon="4.2361204"><ele>4.0</ele><time>2026-04-11T13:26:48.996Z</time></trkpt><trkpt lat="52.0730476" lon="4.2360872"><ele>4.333333333333334</ele><time>2026-04-11T13:26:51.995Z</time></trkpt><trkpt lat="52.0729773" lon="4.2361084"><ele>4.666666666666667</ele><time>2026-04-11T13:26:54.996Z</time></trkpt><trkpt lat="52.0728878" lon="4.2361289"><ele>5.0</ele><time>2026-04-11T13:26:57.995Z</time></trkpt><trkpt lat="52.0728036" lon="4.2361332"><ele>5.0</ele><time>2026-04-11T13:26:59.995Z</time></trkpt><trkpt lat="52.0727108" lon="4.2361251"><ele>5.0</ele><time>2026-04-11T13:27:01.996Z</time></trkpt><trkpt lat="52.0726187" lon="4.2360995"><ele>5.0</ele><time>2026-04-11T13:27:03.996Z</time></trkpt><trkpt lat="52.072509" lon="4.2360408"><ele>5.0</ele><time>2026-04-11T13:27:05.996Z</time></trkpt><trkpt lat="52.0723997" lon="4.2359666"><ele>5.0</ele><time>2026-04-11T13:27:07.996Z</time></trkpt><trkpt lat="52.0722903" lon="4.2358749"><ele>4.833333333333334</ele><time>2026-04-11T13:27:09.995Z</time></trkpt><trkpt lat="52.0722042" lon="4.2357622"><ele>4.666666666666667</ele><time>2026-04-11T13:27:11.995Z</time></trkpt><trkpt lat="52.0721322" lon="4.2356604"><ele>4.5</ele><time>2026-04-11T13:27:13.996Z</time></trkpt><trkpt lat="52.0720684" lon="4.2355732"><ele>4.333333333333333</ele><time>2026-04-11T13:27:15.996Z</time></trkpt><trkpt lat="52.0720215" lon="4.2354888"><ele>4.166666666666666</ele><time>2026-04-11T13:27:19.995Z</time></trkpt><trkpt lat="52.0719633" lon="4.2354219"><ele>4.0</ele><time>2026-04-11T13:27:22.996Z</time></trkpt><trkpt lat="52.0719316" lon="4.2353074"><ele>4.0</ele><time>2026-04-11T13:28:36.996Z</time></trkpt><trkpt lat="52.071876" lon="4.2352219"><ele>4.0</ele><time>2026-04-11T13:28:38.995Z</time></trkpt><trkpt lat="52.0718142" lon="4.2351142"><ele>4.0</ele><time>2026-04-11T13:28:40.996Z</time></trkpt><trkpt lat="52.0717318" lon="4.23498"><ele>4.0</ele><time>2026-04-11T13:28:42.996Z</time></trkpt><trkpt lat="52.0716613" lon="4.2348306"><ele>4.0</ele><time>2026-04-11T13:28:44.996Z</time></trkpt><trkpt lat="52.0715999" lon="4.2347021"><ele>3.9999999999999996</ele><time>2026-04-11T13:28:46.996Z</time></trkpt><trkpt lat="52.0715472" lon="4.2345784"><ele>4.0</ele><time>2026-04-11T13:28:48.996Z</time></trkpt><trkpt lat="52.0715131" lon="4.2344615"><ele>4.0</ele><time>2026-04-11T13:28:50.995Z</time></trkpt><trkpt lat="52.071492" lon="4.2343354"><ele>4.0</ele><time>2026-04-11T13:28:52.995Z</time></trkpt><trkpt lat="52.0714528" lon="4.2341776"><ele>3.9999999999999996</ele><time>2026-04-11T13:28:54.996Z</time></trkpt><trkpt lat="52.0714262" lon="4.2340771"><ele>4.0</ele><time>2026-04-11T13:28:55.996Z</time></trkpt><trkpt lat="52.0714073" lon="4.2339762"><ele>4.166666666666666</ele><time>2026-04-11T13:28:56.996Z</time></trkpt><trkpt lat="52.0713864" lon="4.2338692"><ele>4.333333333333333</ele><time>2026-04-11T13:28:57.996Z</time></trkpt><trkpt lat="52.0713685" lon="4.2337709"><ele>4.5</ele><time>2026-04-11T13:28:58.996Z</time></trkpt><trkpt lat="52.0713527" lon="4.233671"><ele>4.666666666666667</ele><time>2026-04-11T13:28:59.996Z</time></trkpt><trkpt lat="52.0713328" lon="4.2335676"><ele>4.833333333333334</ele><time>2026-04-11T13:29:00.996Z</time></trkpt><trkpt lat="52.071316" lon="4.2334542"><ele>5.0</ele><time>2026-04-11T13:29:01.996Z</time></trkpt><trkpt lat="52.0712952" lon="4.2332602"><ele>5.166666666666667</ele><time>2026-04-11T13:29:03.996Z</time></trkpt><trkpt lat="52.0712739" lon="4.2331061"><ele>5.333333333333334</ele><time>2026-04-11T13:29:05.996Z</time></trkpt><trkpt lat="52.0712673" lon="4.2329751"><ele>5.5</ele><time>2026-04-11T13:29:07.996Z</time></trkpt><trkpt lat="52.0712679" lon="4.2328625"><ele>5.666666666666667</ele><time>2026-04-11T13:29:10.995Z</time></trkpt><trkpt lat="52.0712658" lon="4.2327445"><ele>5.833333333333333</ele><time>2026-04-11T13:30:15.995Z</time></trkpt><trkpt lat="52.0712589" lon="4.2326023"><ele>6.0</ele><time>2026-04-11T13:30:17.995Z</time></trkpt><trkpt lat="52.0712419" lon="4.2324266"><ele>5.999999999999999</ele><time>2026-04-11T13:30:19.995Z</time></trkpt><trkpt lat="52.071239" lon="4.2323166"><ele>6.0</ele><time>2026-04-11T13:30:20.995Z</time></trkpt><trkpt lat="52.0712334" lon="4.2322106"><ele>6.0</ele><time>2026-04-11T13:30:21.995Z</time></trkpt><trkpt lat="52.0712352" lon="4.2321066"><ele>6.0</ele><time>2026-04-11T13:30:22.995Z</time></trkpt><trkpt lat="52.0712265" lon="4.2320035"><ele>6.0</ele><time>2026-04-11T13:30:23.994Z</time></trkpt><trkpt lat="52.0712207" lon="4.2319012"><ele>5.999999999999999</ele><time>2026-04-11T13:30:24.994Z</time></trkpt><trkpt lat="52.0712008" lon="4.2317249"><ele>6.0</ele><time>2026-04-11T13:30:26.995Z</time></trkpt><trkpt lat="52.0711773" lon="4.2315524"><ele>6.199999999999999</ele><time>2026-04-11T13:30:28.994Z</time></trkpt><trkpt lat="52.0711573" lon="4.2313879"><ele>6.3999999999999995</ele><time>2026-04-11T13:30:30.994Z</time></trkpt><trkpt lat="52.0711369" lon="4.2312186"><ele>6.6</ele><time>2026-04-11T13:30:32.995Z</time></trkpt><trkpt lat="52.0711176" lon="4.2310851"><ele>6.8</ele><time>2026-04-11T13:30:34.995Z</time></trkpt><trkpt lat="52.0711063" lon="4.2309698"><ele>7.0</ele><time>2026-04-11T13:30:37.995Z</time></trkpt><trkpt lat="52.0710782" lon="4.2307769"><ele>7.166666666666667</ele><time>2026-04-11T13:31:20.995Z</time></trkpt><trkpt lat="52.0710534" lon="4.2305877"><ele>7.333333333333334</ele><time>2026-04-11T13:31:22.994Z</time></trkpt><trkpt lat="52.0710316" lon="4.2304817"><ele>7.5</ele><time>2026-04-11T13:31:23.995Z</time></trkpt><trkpt lat="52.0710153" lon="4.2303813"><ele>7.666666666666666</ele><time>2026-04-11T13:31:24.994Z</time></trkpt><trkpt lat="52.0710003" lon="4.2302781"><ele>7.833333333333333</ele><time>2026-04-11T13:31:25.995Z</time></trkpt><trkpt lat="52.0709883" lon="4.230177"><ele>8.0</ele><time>2026-04-11T13:31:26.994Z</time></trkpt><trkpt lat="52.0709666" lon="4.2300147"><ele>8.200000000000001</ele><time>2026-04-11T13:31:28.994Z</time></trkpt><trkpt lat="52.0709371" lon="4.2297612"><ele>8.4</ele><time>2026-04-11T13:31:37.995Z</time></trkpt><trkpt lat="52.0709324" lon="4.2295777"><ele>8.600000000000001</ele><time>2026-04-11T13:31:39.995Z</time></trkpt><trkpt lat="52.0709422" lon="4.229472"><ele>8.8</ele><time>2026-04-11T13:31:40.995Z</time></trkpt><trkpt lat="52.0709585" lon="4.2293717"><ele>9.0</ele><time>2026-04-11T13:31:41.995Z</time></trkpt><trkpt lat="52.070989" lon="4.2292699"><ele>9.0</ele><time>2026-04-11T13:31:42.995Z</time></trkpt><trkpt lat="52.0710287" lon="4.2291756"><ele>9.0</ele><time>2026-04-11T13:31:43.995Z</time></trkpt><trkpt lat="52.0710992" lon="4.2290306"><ele>9.0</ele><time>2026-04-11T13:31:45.995Z</time></trkpt><trkpt lat="52.0711476" lon="4.2289261"><ele>9.0</ele><time>2026-04-11T13:31:47.995Z</time></trkpt><trkpt lat="52.0712029" lon="4.2287991"><ele>9.0</ele><time>2026-04-11T13:32:01.995Z</time></trkpt><trkpt lat="52.0712503" lon="4.2286685"><ele>9.0</ele><time>2026-04-11T13:32:03.995Z</time></trkpt><trkpt lat="52.0712892" lon="4.2285237"><ele>9.0</ele><time>2026-04-11T13:32:05.994Z</time></trkpt><trkpt lat="52.0713064" lon="4.2283774"><ele>9.0</ele><time>2026-04-11T13:32:07.995Z</time></trkpt><trkpt lat="52.0713194" lon="4.2282132"><ele>9.0</ele><time>2026-04-11T13:32:09.995Z</time></trkpt><trkpt lat="52.0713237" lon="4.2280638"><ele>9.0</ele><time>2026-04-11T13:32:11.994Z</time></trkpt><trkpt lat="52.071326" lon="4.2279066"><ele>9.0</ele><time>2026-04-11T13:32:13.995Z</time></trkpt><trkpt lat="52.0713207" lon="4.2277314"><ele>9.0</ele><time>2026-04-11T13:32:15.995Z</time></trkpt><trkpt lat="52.0713178" lon="4.2275524"><ele>9.0</ele><time>2026-04-11T13:32:17.994Z</time></trkpt><trkpt lat="52.0713181" lon="4.227373"><ele>9.0</ele><time>2026-04-11T13:32:19.995Z</time></trkpt><trkpt lat="52.071312" lon="4.2272028"><ele>9.0</ele><time>2026-04-11T13:32:21.995Z</time></trkpt><trkpt lat="52.0713047" lon="4.2270305"><ele>9.0</ele><time>2026-04-11T13:32:23.995Z</time></trkpt><trkpt lat="52.0712878" lon="4.2268536"><ele>9.0</ele><time>2026-04-11T13:32:25.995Z</time></trkpt><trkpt lat="52.0712702" lon="4.2266831"><ele>9.0</ele><time>2026-04-11T13:32:27.995Z</time></trkpt><trkpt lat="52.0712498" lon="4.2265181"><ele>9.0</ele><time>2026-04-11T13:32:29.995Z</time></trkpt><trkpt lat="52.0712208" lon="4.2263624"><ele>9.0</ele><time>2026-04-11T13:32:31.995Z</time></trkpt><trkpt lat="52.07119" lon="4.2262196"><ele>9.0</ele><time>2026-04-11T13:32:33.995Z</time></trkpt><trkpt lat="52.0711519" lon="4.2260984"><ele>9.0</ele><time>2026-04-11T13:32:35.995Z</time></trkpt><trkpt lat="52.0711217" lon="4.2259986"><ele>9.0</ele><time>2026-04-11T13:32:37.995Z</time></trkpt><trkpt lat="52.0710999" lon="4.2258673"><ele>9.0</ele><time>2026-04-11T13:32:40.995Z</time></trkpt><trkpt lat="52.0710273" lon="4.2257561"><ele>9.0</ele><time>2026-04-11T13:32:43.995Z</time></trkpt><trkpt lat="52.0709839" lon="4.2256667"><ele>9.0</ele><time>2026-04-11T13:32:45.994Z</time></trkpt><trkpt lat="52.0709362" lon="4.2255407"><ele>9.0</ele><time>2026-04-11T13:32:47.995Z</time></trkpt><trkpt lat="52.0708919" lon="4.2254243"><ele>9.0</ele><time>2026-04-11T13:32:49.995Z</time></trkpt><trkpt lat="52.0708558" lon="4.2253116"><ele>9.0</ele><time>2026-04-11T13:32:51.995Z</time></trkpt><trkpt lat="52.0708121" lon="4.2251982"><ele>9.0</ele><time>2026-04-11T13:32:53.995Z</time></trkpt><trkpt lat="52.0707728" lon="4.2250731"><ele>9.0</ele><time>2026-04-11T13:32:55.995Z</time></trkpt><trkpt lat="52.0707284" lon="4.2249586"><ele>9.0</ele><time>2026-04-11T13:32:57.995Z</time></trkpt><trkpt lat="52.0706846" lon="4.2248576"><ele>8.6</ele><time>2026-04-11T13:32:59.995Z</time></trkpt><trkpt lat="52.0706421" lon="4.2247571"><ele>8.2</ele><time>2026-04-11T13:33:01.995Z</time></trkpt><trkpt lat="52.0705992" lon="4.2246516"><ele>7.799999999999999</ele><time>2026-04-11T13:33:03.995Z</time></trkpt><trkpt lat="52.0705571" lon="4.2245302"><ele>7.3999999999999995</ele><time>2026-04-11T13:33:05.995Z</time></trkpt><trkpt lat="52.0704845" lon="4.2243889"><ele>7.0</ele><time>2026-04-11T13:33:07.995Z</time></trkpt><trkpt lat="52.0703963" lon="4.2242588"><ele>7.0</ele><time>2026-04-11T13:33:09.994Z</time></trkpt><trkpt lat="52.0703071" lon="4.2241404"><ele>6.999999999999999</ele><time>2026-04-11T13:33:11.995Z</time></trkpt><trkpt lat="52.0702267" lon="4.2240452"><ele>6.999999999999999</ele><time>2026-04-11T13:33:13.995Z</time></trkpt><trkpt lat="52.0701628" lon="4.2239847"><ele>7.0</ele><time>2026-04-11T13:33:15.994Z</time></trkpt><trkpt lat="52.0701" lon="4.2239307"><ele>7.0</ele><time>2026-04-11T13:33:17.995Z</time></trkpt><trkpt lat="52.0700044" lon="4.2238414"><ele>7.3999999999999995</ele><time>2026-04-11T13:33:19.995Z</time></trkpt><trkpt lat="52.0698991" lon="4.2237405"><ele>7.799999999999999</ele><time>2026-04-11T13:33:21.995Z</time></trkpt><trkpt lat="52.0698027" lon="4.2236495"><ele>8.2</ele><time>2026-04-11T13:33:23.995Z</time></trkpt><trkpt lat="52.0697242" lon="4.2235715"><ele>8.6</ele><time>2026-04-11T13:33:25.994Z</time></trkpt><trkpt lat="52.0696695" lon="4.2235067"><ele>9.0</ele><time>2026-04-11T13:33:27.995Z</time></trkpt><trkpt lat="52.0695203" lon="4.2234126"><ele>9.0</ele><time>2026-04-11T13:33:36.995Z</time></trkpt><trkpt lat="52.0694312" lon="4.2233276"><ele>9.0</ele><time>2026-04-11T13:33:38.995Z</time></trkpt><trkpt lat="52.0693519" lon="4.223236"><ele>9.0</ele><time>2026-04-11T13:33:40.995Z</time></trkpt><trkpt lat="52.0692603" lon="4.2231338"><ele>9.0</ele><time>2026-04-11T13:33:42.995Z</time></trkpt><trkpt lat="52.0691668" lon="4.2230232"><ele>9.0</ele><time>2026-04-11T13:33:44.994Z</time></trkpt><trkpt lat="52.0690851" lon="4.2229003"><ele>9.5</ele><time>2026-04-11T13:33:46.994Z</time></trkpt><trkpt lat="52.0690212" lon="4.2227694"><ele>10.0</ele><time>2026-04-11T13:33:48.995Z</time></trkpt><trkpt lat="52.0689909" lon="4.2226395"><ele>10.5</ele><time>2026-04-11T13:33:50.995Z</time></trkpt><trkpt lat="52.0689821" lon="4.2225126"><ele>11.0</ele><time>2026-04-11T13:33:52.995Z</time></trkpt><trkpt lat="52.0689823" lon="4.2223728"><ele>11.5</ele><time>2026-04-11T13:33:54.995Z</time></trkpt><trkpt lat="52.0689499" lon="4.2222489"><ele>12.0</ele><time>2026-04-11T13:33:56.995Z</time></trkpt><trkpt lat="52.0688996" lon="4.2221356"><ele>12.0</ele><time>2026-04-11T13:33:58.995Z</time></trkpt><trkpt lat="52.0688478" lon="4.2220303"><ele>12.0</ele><time>2026-04-11T13:34:00.995Z</time></trkpt><trkpt lat="52.068799" lon="4.2219412"><ele>12.0</ele><time>2026-04-11T13:34:02.994Z</time></trkpt><trkpt lat="52.0687513" lon="4.2218503"><ele>12.0</ele><time>2026-04-11T13:34:04.995Z</time></trkpt><trkpt lat="52.0686711" lon="4.2217256"><ele>12.0</ele><time>2026-04-11T13:34:06.995Z</time></trkpt><trkpt lat="52.0685949" lon="4.2215739"><ele>12.0</ele><time>2026-04-11T13:34:08.995Z</time></trkpt><trkpt lat="52.0685497" lon="4.2214906"><ele>12.0</ele><time>2026-04-11T13:34:09.994Z</time></trkpt><trkpt lat="52.0685063" lon="4.2214105"><ele>12.0</ele><time>2026-04-11T13:34:10.995Z</time></trkpt><trkpt lat="52.0684243" lon="4.221268"><ele>12.0</ele><time>2026-04-11T13:34:12.995Z</time></trkpt><trkpt lat="52.0683451" lon="4.2211273"><ele>12.0</ele><time>2026-04-11T13:34:14.995Z</time></trkpt><trkpt lat="52.0682601" lon="4.2209731"><ele>11.8</ele><time>2026-04-11T13:34:16.994Z</time></trkpt><trkpt lat="52.0682142" lon="4.220903"><ele>11.6</ele><time>2026-04-11T13:34:17.995Z</time></trkpt><trkpt lat="52.0681319" lon="4.2207662"><ele>11.4</ele><time>2026-04-11T13:34:19.995Z</time></trkpt><trkpt lat="52.0680823" lon="4.2206172"><ele>11.200000000000001</ele><time>2026-04-11T13:34:21.995Z</time></trkpt><trkpt lat="52.0680842" lon="4.2204633"><ele>11.0</ele><time>2026-04-11T13:34:23.995Z</time></trkpt><trkpt lat="52.0680831" lon="4.2202889"><ele>11.0</ele><time>2026-04-11T13:34:25.995Z</time></trkpt><trkpt lat="52.0680138" lon="4.2201529"><ele>11.0</ele><time>2026-04-11T13:34:27.995Z</time></trkpt><trkpt lat="52.0679297" lon="4.2200491"><ele>11.0</ele><time>2026-04-11T13:34:29.995Z</time></trkpt><trkpt lat="52.0678407" lon="4.2199418"><ele>11.0</ele><time>2026-04-11T13:34:31.995Z</time></trkpt><trkpt lat="52.0677785" lon="4.2198443"><ele>11.0</ele><time>2026-04-11T13:34:33.995Z</time></trkpt><trkpt lat="52.0677044" lon="4.2197533"><ele>11.8</ele><time>2026-04-11T13:34:35.994Z</time></trkpt><trkpt lat="52.0676182" lon="4.2196441"><ele>12.600000000000001</ele><time>2026-04-11T13:34:37.994Z</time></trkpt><trkpt lat="52.0675661" lon="4.2195817"><ele>13.4</ele><time>2026-04-11T13:34:38.995Z</time></trkpt><trkpt lat="52.0674792" lon="4.2194557"><ele>14.2</ele><time>2026-04-11T13:34:40.995Z</time></trkpt><trkpt lat="52.0674273" lon="4.2193875"><ele>15.0</ele><time>2026-04-11T13:34:41.994Z</time></trkpt><trkpt lat="52.0673305" lon="4.2192537"><ele>14.0</ele><time>2026-04-11T13:34:43.995Z</time></trkpt><trkpt lat="52.0672519" lon="4.2191051"><ele>13.0</ele><time>2026-04-11T13:34:45.994Z</time></trkpt><trkpt lat="52.0672159" lon="4.2190155"><ele>12.0</ele><time>2026-04-11T13:34:46.994Z</time></trkpt><trkpt lat="52.0671825" lon="4.2189127"><ele>11.0</ele><time>2026-04-11T13:34:47.995Z</time></trkpt><trkpt lat="52.067145" lon="4.2188093"><ele>10.0</ele><time>2026-04-11T13:34:48.995Z</time></trkpt><trkpt lat="52.0670926" lon="4.21872"><ele>9.0</ele><time>2026-04-11T13:34:49.995Z</time></trkpt><trkpt lat="52.0670292" lon="4.2186354"><ele>9.000000000000002</ele><time>2026-04-11T13:34:50.994Z</time></trkpt><trkpt lat="52.066969" lon="4.2185549"><ele>9.0</ele><time>2026-04-11T13:34:51.994Z</time></trkpt><trkpt lat="52.0669132" lon="4.2184824"><ele>9.0</ele><time>2026-04-11T13:34:52.995Z</time></trkpt><trkpt lat="52.0668564" lon="4.2184087"><ele>9.0</ele><time>2026-04-11T13:34:53.995Z</time></trkpt><trkpt lat="52.0667998" lon="4.2183349"><ele>9.0</ele><time>2026-04-11T13:34:54.995Z</time></trkpt><trkpt lat="52.0667452" lon="4.2182615"><ele>9.000000000000002</ele><time>2026-04-11T13:34:55.995Z</time></trkpt><trkpt lat="52.0666928" lon="4.2181944"><ele>9.0</ele><time>2026-04-11T13:34:56.994Z</time></trkpt><trkpt lat="52.06664" lon="4.2181261"><ele>9.2</ele><time>2026-04-11T13:34:57.995Z</time></trkpt><trkpt lat="52.0665456" lon="4.2180025"><ele>9.4</ele><time>2026-04-11T13:34:59.994Z</time></trkpt><trkpt lat="52.0664335" lon="4.217966"><ele>9.6</ele><time>2026-04-11T13:35:01.995Z</time></trkpt><trkpt lat="52.0663256" lon="4.2179795"><ele>9.8</ele><time>2026-04-11T13:35:03.995Z</time></trkpt><trkpt lat="52.0662363" lon="4.2180639"><ele>10.0</ele><time>2026-04-11T13:35:05.995Z</time></trkpt><trkpt lat="52.0661763" lon="4.2181855"><ele>9.5</ele><time>2026-04-11T13:35:07.995Z</time></trkpt><trkpt lat="52.066138" lon="4.2182721"><ele>9.0</ele><time>2026-04-11T13:35:09.995Z</time></trkpt><trkpt lat="52.0661281" lon="4.2183827"><ele>8.5</ele><time>2026-04-11T13:35:11.995Z</time></trkpt><trkpt lat="52.066116" lon="4.2185113"><ele>8.0</ele><time>2026-04-11T13:35:15.994Z</time></trkpt><trkpt lat="52.0660362" lon="4.2185945"><ele>7.500000000000001</ele><time>2026-04-11T13:35:17.994Z</time></trkpt><trkpt lat="52.0659296" lon="4.2187083"><ele>7.0</ele><time>2026-04-11T13:35:19.995Z</time></trkpt><trkpt lat="52.0658715" lon="4.2187714"><ele>7.0</ele><time>2026-04-11T13:35:20.995Z</time></trkpt><trkpt lat="52.0658121" lon="4.21883"><ele>7.0</ele><time>2026-04-11T13:35:21.995Z</time></trkpt><trkpt lat="52.0657575" lon="4.2188944"><ele>7.0</ele><time>2026-04-11T13:35:22.995Z</time></trkpt><trkpt lat="52.0656981" lon="4.2189572"><ele>7.0</ele><time>2026-04-11T13:35:23.995Z</time></trkpt><trkpt lat="52.0656382" lon="4.2190181"><ele>7.0</ele><time>2026-04-11T13:35:24.995Z</time></trkpt><trkpt lat="52.0655742" lon="4.2190823"><ele>7.0</ele><time>2026-04-11T13:35:25.994Z</time></trkpt><trkpt lat="52.0655167" lon="4.2191418"><ele>7.0</ele><time>2026-04-11T13:35:26.995Z</time></trkpt><trkpt lat="52.0654586" lon="4.2192012"><ele>6.571428571428571</ele><time>2026-04-11T13:35:27.994Z</time></trkpt><trkpt lat="52.0653977" lon="4.2192626"><ele>6.142857142857142</ele><time>2026-04-11T13:35:28.995Z</time></trkpt><trkpt lat="52.0653412" lon="4.2193247"><ele>5.714285714285714</ele><time>2026-04-11T13:35:29.995Z</time></trkpt><trkpt lat="52.0652877" lon="4.2193914"><ele>5.285714285714286</ele><time>2026-04-11T13:35:30.994Z</time></trkpt><trkpt lat="52.0652355" lon="4.219457"><ele>4.857142857142857</ele><time>2026-04-11T13:35:31.994Z</time></trkpt><trkpt lat="52.0651807" lon="4.2195221"><ele>4.428571428571429</ele><time>2026-04-11T13:35:32.995Z</time></trkpt><trkpt lat="52.0651259" lon="4.2195813"><ele>4.0</ele><time>2026-04-11T13:35:33.995Z</time></trkpt><trkpt lat="52.0650171" lon="4.219677"><ele>3.9999999999999996</ele><time>2026-04-11T13:35:35.995Z</time></trkpt><trkpt lat="52.06496" lon="4.2197253"><ele>4.0</ele><time>2026-04-11T13:35:36.995Z</time></trkpt><trkpt lat="52.0649025" lon="4.2197747"><ele>4.0</ele><time>2026-04-11T13:35:37.995Z</time></trkpt><trkpt lat="52.0648451" lon="4.2198315"><ele>4.0</ele><time>2026-04-11T13:35:38.995Z</time></trkpt><trkpt lat="52.0647469" lon="4.2199309"><ele>3.9999999999999996</ele><time>2026-04-11T13:35:40.995Z</time></trkpt><trkpt lat="52.0646855" lon="4.2199962"><ele>4.0</ele><time>2026-04-11T13:35:42.995Z</time></trkpt><trkpt lat="52.0645871" lon="4.2199603"><ele>3.9999999999999996</ele><time>2026-04-11T13:35:45.995Z</time></trkpt><trkpt lat="52.0645374" lon="4.2198367"><ele>4.0</ele><time>2026-04-11T13:35:47.995Z</time></trkpt><trkpt lat="52.0644702" lon="4.2196696"><ele>4.0</ele><time>2026-04-11T13:35:49.995Z</time></trkpt><trkpt lat="52.0644291" lon="4.2195765"><ele>4.0</ele><time>2026-04-11T13:35:50.995Z</time></trkpt><trkpt lat="52.0643854" lon="4.2194802"><ele>3.9999999999999996</ele><time>2026-04-11T13:35:51.994Z</time></trkpt><trkpt lat="52.0643427" lon="4.2193758"><ele>4.0</ele><time>2026-04-11T13:35:52.995Z</time></trkpt><trkpt lat="52.0643027" lon="4.2192694"><ele>3.9999999999999996</ele><time>2026-04-11T13:35:53.995Z</time></trkpt><trkpt lat="52.0642604" lon="4.2191627"><ele>4.0</ele><time>2026-04-11T13:35:54.995Z</time></trkpt><trkpt lat="52.0642222" lon="4.2190534"><ele>4.0</ele><time>2026-04-11T13:35:55.995Z</time></trkpt><trkpt lat="52.0641813" lon="4.2189463"><ele>4.0</ele><time>2026-04-11T13:35:56.995Z</time></trkpt><trkpt lat="52.0641424" lon="4.2188406"><ele>3.9999999999999996</ele><time>2026-04-11T13:35:57.995Z</time></trkpt><trkpt lat="52.064105" lon="4.2187366"><ele>4.0</ele><time>2026-04-11T13:35:58.995Z</time></trkpt><trkpt lat="52.0640654" lon="4.2186337"><ele>4.166666666666666</ele><time>2026-04-11T13:35:59.995Z</time></trkpt><trkpt lat="52.0640246" lon="4.2185275"><ele>4.333333333333333</ele><time>2026-04-11T13:36:00.995Z</time></trkpt><trkpt lat="52.0639802" lon="4.2184245"><ele>4.5</ele><time>2026-04-11T13:36:01.994Z</time></trkpt><trkpt lat="52.0639406" lon="4.2183194"><ele>4.666666666666667</ele><time>2026-04-11T13:36:02.995Z</time></trkpt><trkpt lat="52.063898" lon="4.2182161"><ele>4.833333333333334</ele><time>2026-04-11T13:36:03.995Z</time></trkpt><trkpt lat="52.0638589" lon="4.2181086"><ele>5.0</ele><time>2026-04-11T13:36:04.995Z</time></trkpt><trkpt lat="52.0638193" lon="4.2180033"><ele>5.0</ele><time>2026-04-11T13:36:05.994Z</time></trkpt><trkpt lat="52.0637781" lon="4.2178931"><ele>5.0</ele><time>2026-04-11T13:36:06.995Z</time></trkpt><trkpt lat="52.0637357" lon="4.2177875"><ele>5.0</ele><time>2026-04-11T13:36:07.994Z</time></trkpt><trkpt lat="52.0636914" lon="4.2176833"><ele>5.0</ele><time>2026-04-11T13:36:08.994Z</time></trkpt><trkpt lat="52.0636493" lon="4.2175785"><ele>5.0</ele><time>2026-04-11T13:36:09.995Z</time></trkpt><trkpt lat="52.0636066" lon="4.2174713"><ele>5.0</ele><time>2026-04-11T13:36:10.995Z</time></trkpt><trkpt lat="52.0635702" lon="4.2173674"><ele>4.714285714285714</ele><time>2026-04-11T13:36:11.995Z</time></trkpt><trkpt lat="52.0635311" lon="4.2172603"><ele>4.428571428571429</ele><time>2026-04-11T13:36:12.994Z</time></trkpt><trkpt lat="52.0634911" lon="4.2171512"><ele>4.142857142857142</ele><time>2026-04-11T13:36:13.995Z</time></trkpt><trkpt lat="52.0634493" lon="4.2170439"><ele>3.8571428571428568</ele><time>2026-04-11T13:36:14.995Z</time></trkpt><trkpt lat="52.0634095" lon="4.2169412"><ele>3.571428571428571</ele><time>2026-04-11T13:36:15.995Z</time></trkpt><trkpt lat="52.0633705" lon="4.2168464"><ele>3.2857142857142856</ele><time>2026-04-11T13:36:16.995Z</time></trkpt><trkpt lat="52.063339" lon="4.2167534"><ele>3.0</ele><time>2026-04-11T13:36:17.995Z</time></trkpt><trkpt lat="52.0632851" lon="4.2166143"><ele>3.1666666666666665</ele><time>2026-04-11T13:36:19.995Z</time></trkpt><trkpt lat="52.0632489" lon="4.2165239"><ele>3.333333333333333</ele><time>2026-04-11T13:36:21.995Z</time></trkpt><trkpt lat="52.0631809" lon="4.2164901"><ele>3.5</ele><time>2026-04-11T13:36:24.995Z</time></trkpt><trkpt lat="52.0631016" lon="4.2165615"><ele>3.6666666666666665</ele><time>2026-04-11T13:36:28.995Z</time></trkpt><trkpt lat="52.0630294" lon="4.2166459"><ele>3.833333333333333</ele><time>2026-04-11T13:36:31.995Z</time></trkpt><trkpt lat="52.0629569" lon="4.2167392"><ele>4.0</ele><time>2026-04-11T13:36:34.995Z</time></trkpt><trkpt lat="52.0628895" lon="4.2168087"><ele>4.0</ele><time>2026-04-11T13:36:36.995Z</time></trkpt><trkpt lat="52.0628156" lon="4.2168857"><ele>4.0</ele><time>2026-04-11T13:36:38.995Z</time></trkpt><trkpt lat="52.0627424" lon="4.2169756"><ele>4.0</ele><time>2026-04-11T13:36:40.995Z</time></trkpt><trkpt lat="52.0626719" lon="4.217055"><ele>4.0</ele><time>2026-04-11T13:36:42.995Z</time></trkpt><trkpt lat="52.0625965" lon="4.2170502"><ele>4.0</ele><time>2026-04-11T13:36:44.994Z</time></trkpt><trkpt lat="52.0625336" lon="4.2169041"><ele>4.0</ele><time>2026-04-11T13:36:47.995Z</time></trkpt><trkpt lat="52.0624793" lon="4.2167707"><ele>4.0</ele><time>2026-04-11T13:36:49.995Z</time></trkpt><trkpt lat="52.0624261" lon="4.2166424"><ele>5.0</ele><time>2026-04-11T13:36:51.995Z</time></trkpt><trkpt lat="52.0623816" lon="4.2165278"><ele>5.0</ele><time>2026-04-11T13:36:53.995Z</time></trkpt><trkpt lat="52.0624204" lon="4.2166296"><ele>5.0</ele><time>2026-04-11T13:42:20.995Z</time></trkpt><trkpt lat="52.0624294" lon="4.2167368"><ele>5.0</ele><time>2026-04-11T13:42:24.995Z</time></trkpt></trkseg></trk></gpx>